createdAt,value
2023-05-02T00:00:08.620Z,99.99
2023-05-02T00:01:08.609Z,99.99
2023-05-02T00:02:08.602Z,99.99
2023-05-02T00:03:08.646Z,99.99
2023-05-02T00:04:08.670Z,99.99
2023-05-02T00:05:08.548Z,99.99
2023-05-02T00:06:08.603Z,99.99
2023-05-02T00:07:08.535Z,99.99
2023-05-02T00:08:08.509Z,99.99
2023-05-02T00:09:08.521Z,99.99
2023-05-02T00:10:08.495Z,99.99
2023-05-02T00:11:08.484Z,99.99
2023-05-02T00:12:08.466Z,99.99
2023-05-02T00:13:08.445Z,99.99
2023-05-02T00:14:08.442Z,99.99
2023-05-02T00:15:08.430Z,99.99
2023-05-02T00:16:08.412Z,99.99
2023-05-02T00:17:08.533Z,99.99
2023-05-02T00:18:08.447Z,99.99
2023-05-02T00:19:08.385Z,99.99
2023-05-02T00:20:08.359Z,99.99
2023-05-02T00:21:08.338Z,99.99
2023-05-02T00:22:08.332Z,99.99
2023-05-02T00:23:08.314Z,99.99
2023-05-02T00:24:08.297Z,99.99
2023-05-02T00:25:08.380Z,99.99
2023-05-02T00:26:08.276Z,99.99
2023-05-02T00:27:08.288Z,99.99
2023-05-02T00:28:08.253Z,99.99
2023-05-02T00:29:08.240Z,99.99
2023-05-02T00:30:08.222Z,99.99
2023-05-02T00:31:08.228Z,99.99
2023-05-02T00:32:08.192Z,99.99
2023-05-02T00:33:08.224Z,99.99
2023-05-02T00:34:08.173Z,99.99
2023-05-02T00:35:08.157Z,99.99
2023-05-02T00:36:08.137Z,99.99
2023-05-02T00:37:08.136Z,99.99
2023-05-02T00:38:08.112Z,99.99
2023-05-02T00:39:08.097Z,99.99
2023-05-02T00:40:08.176Z,99.99
2023-05-02T00:41:08.108Z,99.99
2023-05-02T00:42:08.061Z,99.99
2023-05-02T00:43:08.052Z,99.99
2023-05-02T00:44:08.046Z,99.99
2023-05-02T00:45:08.028Z,99.99
2023-05-02T00:46:08.051Z,99.99
2023-05-02T00:47:07.994Z,99.99
2023-05-02T00:48:08.024Z,99.99
2023-05-02T00:49:07.975Z,99.99
2023-05-02T00:50:07.962Z,99.99
2023-05-02T00:51:07.947Z,99.99
2023-05-02T00:52:07.936Z,99.99
2023-05-02T00:53:07.929Z,99.99
2023-05-02T00:54:07.917Z,99.99
2023-05-02T00:55:07.896Z,99.99
2023-05-02T00:56:07.883Z,99.99
2023-05-02T00:57:07.994Z,99.99
2023-05-02T00:58:07.850Z,99.99
2023-05-02T00:59:07.847Z,99.99
2023-05-02T01:00:07.838Z,99.99
2023-05-02T01:01:07.812Z,99.99
2023-05-02T01:02:07.920Z,99.99
2023-05-02T01:03:07.953Z,99.99
2023-05-02T01:04:07.875Z,99.99
2023-05-02T01:05:07.767Z,99.99
2023-05-02T01:06:07.763Z,99.99
2023-05-02T01:07:07.741Z,99.99
2023-05-02T01:08:07.725Z,99.99
2023-05-02T01:09:07.711Z,99.99
2023-05-02T01:10:07.695Z,99.99
2023-05-02T01:11:07.672Z,99.99
2023-05-02T01:12:07.670Z,99.99
2023-05-02T01:13:07.677Z,99.99
2023-05-02T01:14:07.633Z,99.99
2023-05-02T01:15:07.664Z,99.99
2023-05-02T01:16:07.698Z,99.99
2023-05-02T01:17:07.621Z,99.99
2023-05-02T01:18:07.617Z,99.99
2023-05-02T01:19:07.581Z,99.99
2023-05-02T01:20:07.564Z,99.99
2023-05-02T01:21:07.566Z,99.99
2023-05-02T01:22:07.555Z,99.99
2023-05-02T01:23:07.531Z,99.99
2023-05-02T01:24:07.509Z,99.99
2023-05-02T01:25:07.498Z,99.99
2023-05-02T01:26:07.481Z,99.99
2023-05-02T01:27:07.474Z,99.99
2023-05-02T01:28:07.462Z,99.99
2023-05-02T01:29:07.468Z,99.99
2023-05-02T01:30:07.431Z,99.99
2023-05-02T01:31:07.464Z,99.99
2023-05-02T01:32:07.625Z,99.99
2023-05-02T01:33:07.436Z,99.99
2023-05-02T01:34:07.378Z,99.99
2023-05-02T01:35:07.376Z,99.99
2023-05-02T01:36:07.347Z,99.99
2023-05-02T01:37:07.333Z,99.99
2023-05-02T01:38:07.326Z,99.99
2023-05-02T01:39:07.306Z,99.99
2023-05-02T01:40:07.305Z,99.99
2023-05-02T01:41:07.352Z,99.99
2023-05-02T01:42:07.277Z,99.99
2023-05-02T01:43:07.266Z,99.99
2023-05-02T01:44:07.242Z,99.99
2023-05-02T01:45:07.276Z,99.99
2023-05-02T01:46:07.224Z,99.99
2023-05-02T01:47:07.467Z,99.99
2023-05-02T01:48:07.209Z,99.99
2023-05-02T01:49:07.184Z,99.99
2023-05-02T01:50:07.165Z,99.99
2023-05-02T01:51:07.176Z,99.99
2023-05-02T01:52:07.135Z,99.99
2023-05-02T01:53:07.129Z,99.99
2023-05-02T01:54:07.109Z,99.99
2023-05-02T01:55:07.107Z,99.99
2023-05-02T01:56:07.090Z,99.99
2023-05-02T01:57:07.072Z,99.99
2023-05-02T01:58:07.071Z,99.99
2023-05-02T01:59:07.047Z,99.99
2023-05-02T02:00:07.048Z,99.99
2023-05-02T02:01:07.098Z,99.99
2023-05-02T02:02:07.015Z,99.99
2023-05-02T02:03:07.043Z,99.99
2023-05-02T02:04:07.020Z,99.99
2023-05-02T02:05:06.963Z,99.99
2023-05-02T02:06:06.978Z,99.99
2023-05-02T02:07:06.955Z,99.99
2023-05-02T02:08:06.934Z,99.99
2023-05-02T02:09:06.921Z,99.99
2023-05-02T02:10:06.898Z,99.99
2023-05-02T02:11:06.888Z,99.99
2023-05-02T02:12:06.886Z,99.99
2023-05-02T02:13:06.868Z,99.99
2023-05-02T02:14:06.860Z,99.99
2023-05-02T02:15:06.844Z,99.99
2023-05-02T02:16:06.881Z,99.99
2023-05-02T02:17:07.064Z,99.99
2023-05-02T02:18:06.883Z,99.99
2023-05-02T02:19:06.789Z,99.99
2023-05-02T02:20:06.776Z,99.99
2023-05-02T02:21:06.761Z,99.99
2023-05-02T02:22:06.750Z,99.99
2023-05-02T02:23:06.756Z,99.99
2023-05-02T02:24:06.720Z,99.99
2023-05-02T02:25:06.705Z,99.99
2023-05-02T02:26:06.690Z,99.99
2023-05-02T02:27:06.683Z,99.99
2023-05-02T02:28:06.662Z,99.99
2023-05-02T02:29:06.656Z,99.99
2023-05-02T02:30:06.635Z,99.99
2023-05-02T02:31:06.654Z,99.99
2023-05-02T02:32:06.608Z,99.99
2023-05-02T02:33:06.646Z,99.99
2023-05-02T02:34:06.591Z,99.99
2023-05-02T02:35:06.576Z,99.99
2023-05-02T02:36:06.566Z,99.99
2023-05-02T02:37:06.542Z,99.99
2023-05-02T02:38:06.541Z,99.99
2023-05-02T02:39:06.515Z,99.99
2023-05-02T02:40:06.505Z,99.99
2023-05-02T02:41:06.497Z,99.99
2023-05-02T02:42:06.476Z,99.99
2023-05-02T02:43:06.479Z,99.99
2023-05-02T02:44:06.456Z,99.99
2023-05-02T02:45:06.440Z,99.99
2023-05-02T02:46:06.485Z,99.99
2023-05-02T02:47:06.415Z,99.99
2023-05-02T02:48:06.429Z,99.99
2023-05-02T02:49:06.433Z,99.99
2023-05-02T02:50:06.401Z,99.99
2023-05-02T02:51:06.360Z,99.99
2023-05-02T02:52:06.354Z,99.99
2023-05-02T02:53:06.342Z,99.99
2023-05-02T02:54:19.103Z,99.99
2023-05-02T02:55:07.361Z,99.99
2023-05-02T02:56:06.302Z,99.99
2023-05-02T02:57:06.291Z,99.99
2023-05-02T02:58:06.268Z,99.99
2023-05-02T02:59:06.254Z,99.99
2023-05-02T03:00:06.254Z,99.99
2023-05-02T03:01:06.256Z,99.99
2023-05-02T03:02:06.341Z,99.99
2023-05-02T03:03:06.236Z,99.99
2023-05-02T03:04:06.231Z,99.99
2023-05-02T03:05:06.205Z,99.99
2023-05-02T03:06:06.216Z,99.99
2023-05-02T03:07:06.161Z,99.99
2023-05-02T03:08:06.131Z,99.99
2023-05-02T03:09:06.136Z,99.99
2023-05-02T03:10:06.147Z,99.99
2023-05-02T03:11:06.098Z,99.99
2023-05-02T03:12:06.084Z,99.99
2023-05-02T03:13:06.071Z,99.99
2023-05-02T03:14:06.058Z,99.99
2023-05-02T03:15:06.065Z,99.99
2023-05-02T03:16:06.061Z,99.99
2023-05-02T03:17:06.037Z,99.99
2023-05-02T03:18:06.114Z,99.99
2023-05-02T03:19:06.020Z,99.99
2023-05-02T03:20:05.990Z,99.99
2023-05-02T03:21:06.008Z,99.99
2023-05-02T03:22:05.975Z,99.99
2023-05-02T03:23:05.954Z,99.99
2023-05-02T03:24:05.949Z,99.99
2023-05-02T03:25:05.919Z,99.99
2023-05-02T03:26:05.910Z,99.99
2023-05-02T03:27:05.886Z,99.99
2023-05-02T03:28:05.881Z,99.99
2023-05-02T03:29:05.858Z,99.99
2023-05-02T03:30:05.886Z,99.99
2023-05-02T03:31:05.872Z,99.99
2023-05-02T03:32:05.954Z,99.99
2023-05-02T03:33:05.850Z,99.99
2023-05-02T03:34:05.795Z,99.99
2023-05-02T03:35:05.791Z,99.99
2023-05-02T03:36:05.769Z,99.99
2023-05-02T03:37:05.787Z,99.99
2023-05-02T03:38:05.763Z,99.99
2023-05-02T03:39:05.727Z,99.99
2023-05-02T03:40:05.743Z,99.99
2023-05-02T03:41:05.711Z,99.99
2023-05-02T03:42:05.701Z,99.99
2023-05-02T03:43:05.676Z,99.99
2023-05-02T03:44:05.670Z,99.99
2023-05-02T03:45:05.655Z,99.99
2023-05-02T03:46:05.650Z,99.99
2023-05-02T03:47:05.753Z,99.99
2023-05-02T03:48:05.692Z,99.99
2023-05-02T03:49:05.592Z,99.99
2023-05-02T03:50:05.598Z,99.99
2023-05-02T03:51:05.574Z,99.99
2023-05-02T03:52:05.566Z,99.99
2023-05-02T03:53:05.584Z,99.99
2023-05-02T03:54:05.547Z,99.99
2023-05-02T03:55:05.524Z,99.99
2023-05-02T03:56:05.510Z,99.99
2023-05-02T03:57:05.502Z,99.99
2023-05-02T03:58:05.479Z,99.99
2023-05-02T03:59:05.470Z,99.99
2023-05-02T04:00:05.457Z,99.99
2023-05-02T04:01:05.448Z,99.99
2023-05-02T04:02:05.469Z,99.99
2023-05-02T04:03:05.450Z,99.99
2023-05-02T04:04:05.493Z,99.99
2023-05-02T04:05:05.389Z,99.99
2023-05-02T04:06:05.440Z,99.99
2023-05-02T04:07:05.374Z,99.99
2023-05-02T04:08:05.364Z,99.99
2023-05-02T04:09:05.386Z,99.99
2023-05-02T04:10:05.340Z,99.99
2023-05-02T04:11:05.313Z,99.99
2023-05-02T04:12:05.302Z,99.99
2023-05-02T04:13:05.295Z,99.99
2023-05-02T04:14:05.283Z,99.99
2023-05-02T04:15:05.260Z,99.99
2023-05-02T04:16:05.239Z,99.99
2023-05-02T04:17:05.251Z,99.99
2023-05-02T04:18:05.247Z,99.99
2023-05-02T04:19:05.215Z,99.99
2023-05-02T04:20:05.735Z,99.99
2023-05-02T04:21:05.190Z,99.99
2023-05-02T04:22:05.165Z,99.99
2023-05-02T04:23:05.156Z,99.99
2023-05-02T04:24:05.150Z,99.99
2023-05-02T04:25:05.192Z,99.99
2023-05-02T04:26:05.140Z,99.99
2023-05-02T04:27:05.103Z,99.99
2023-05-02T04:28:05.079Z,99.99
2023-05-02T04:29:05.080Z,99.99
2023-05-02T04:30:05.057Z,99.99
2023-05-02T04:31:05.094Z,99.99
2023-05-02T04:32:05.034Z,99.99
2023-05-02T04:33:05.052Z,99.99
2023-05-02T04:34:05.016Z,99.99
2023-05-02T04:35:04.995Z,99.99
2023-05-02T04:36:04.987Z,99.99
2023-05-02T04:37:04.978Z,99.99
2023-05-02T04:38:04.959Z,99.99
2023-05-02T04:39:04.940Z,99.99
2023-05-02T04:40:04.936Z,99.99
2023-05-02T04:41:09.199Z,99.99
2023-05-02T04:42:04.908Z,99.99
2023-05-02T04:43:04.878Z,99.99
2023-05-02T04:44:04.878Z,99.99
2023-05-02T04:45:04.873Z,99.99
2023-05-02T04:46:04.887Z,99.99
2023-05-02T04:47:04.843Z,99.99
2023-05-02T04:48:04.895Z,99.99
2023-05-02T04:49:04.810Z,99.99
2023-05-02T04:50:04.791Z,99.99
2023-05-02T04:51:04.791Z,99.99
2023-05-02T04:52:04.783Z,99.99
2023-05-02T04:53:04.781Z,99.99
2023-05-02T04:54:04.738Z,99.99
2023-05-02T04:55:04.734Z,99.99
2023-05-02T04:56:04.710Z,99.99
2023-05-02T04:57:04.742Z,99.99
2023-05-02T04:58:04.693Z,99.99
2023-05-02T04:59:04.686Z,99.99
2023-05-02T05:00:04.677Z,99.99
2023-05-02T05:01:04.668Z,99.99
2023-05-02T05:02:04.753Z,99.99
2023-05-02T05:03:04.678Z,99.99
2023-05-02T05:04:04.687Z,99.99
2023-05-02T05:05:04.725Z,99.99
2023-05-02T05:06:04.634Z,99.99
2023-05-02T05:07:04.593Z,99.99
2023-05-02T05:08:04.559Z,99.99
2023-05-02T05:09:04.542Z,99.99
2023-05-02T05:10:04.568Z,99.99
2023-05-02T05:11:04.520Z,99.99
2023-05-02T05:12:04.519Z,99.99
2023-05-02T05:13:04.523Z,99.99
2023-05-02T05:14:04.490Z,99.99
2023-05-02T05:15:04.483Z,99.99
2023-05-02T05:16:04.547Z,99.99
2023-05-02T05:17:04.451Z,99.99
2023-05-02T05:18:04.470Z,99.99
2023-05-02T05:19:04.418Z,99.99
2023-05-02T05:20:04.410Z,99.99
2023-05-02T05:21:04.403Z,99.99
2023-05-02T05:22:04.391Z,99.99
2023-05-02T05:23:04.371Z,99.99
2023-05-02T05:24:04.362Z,99.99
2023-05-02T05:25:04.338Z,99.99
2023-05-02T05:26:04.331Z,99.99
2023-05-02T05:27:04.320Z,99.99
2023-05-02T05:28:04.301Z,99.99
2023-05-02T05:29:04.327Z,99.99
2023-05-02T05:30:04.276Z,99.99
2023-05-02T05:31:04.288Z,99.99
2023-05-02T05:32:04.302Z,99.99
2023-05-02T05:33:04.291Z,99.99
2023-05-02T05:34:04.282Z,99.99
2023-05-02T05:35:04.205Z,99.99
2023-05-02T05:36:04.206Z,99.99
2023-05-02T05:37:04.177Z,99.99
2023-05-02T05:38:04.174Z,99.99
2023-05-02T05:39:04.211Z,99.99
2023-05-02T05:40:04.400Z,99.99
2023-05-02T05:41:04.136Z,99.99
2023-05-02T05:42:04.111Z,99.99
2023-05-02T05:43:04.110Z,99.99
2023-05-02T05:44:04.082Z,99.99
2023-05-02T05:45:04.106Z,99.99
2023-05-02T05:46:04.061Z,99.99
2023-05-02T05:47:04.113Z,99.99
2023-05-02T05:48:04.116Z,99.99
2023-05-02T05:49:04.035Z,99.99
2023-05-02T05:50:04.124Z,99.99
2023-05-02T05:51:04.016Z,99.99
2023-05-02T05:52:04.000Z,99.99
2023-05-02T05:53:04.002Z,99.99
2023-05-02T05:54:03.965Z,99.99
2023-05-02T05:55:03.948Z,99.99
2023-05-02T05:56:03.967Z,99.99
2023-05-02T05:57:03.913Z,99.99
2023-05-02T05:58:03.915Z,99.99
2023-05-02T05:59:03.908Z,99.99
2023-05-02T06:00:04.026Z,99.99
2023-05-02T06:01:03.894Z,99.99
2023-05-02T06:02:03.896Z,99.99
2023-05-02T06:03:04.380Z,99.99
2023-05-02T06:04:03.921Z,99.99
2023-05-02T06:05:04.029Z,99.99
2023-05-02T06:06:03.861Z,99.99
2023-05-02T06:07:03.806Z,99.99
2023-05-02T06:08:03.782Z,99.99
2023-05-02T06:09:03.774Z,99.99
2023-05-02T06:10:03.762Z,99.99
2023-05-02T06:11:03.745Z,99.99
2023-05-02T06:12:03.736Z,99.99
2023-05-02T06:13:03.748Z,99.99
2023-05-02T06:14:03.699Z,99.99
2023-05-02T06:15:03.711Z,99.99
2023-05-02T06:16:03.694Z,99.99
2023-05-02T06:17:03.724Z,99.99
2023-05-02T06:18:03.775Z,99.99
2023-05-02T06:19:03.658Z,99.99
2023-05-02T06:20:03.620Z,99.99
2023-05-02T06:21:03.621Z,99.99
2023-05-02T06:22:03.620Z,99.99
2023-05-02T06:23:03.580Z,99.99
2023-05-02T06:24:03.574Z,99.99
2023-05-02T06:25:03.558Z,99.99
2023-05-02T06:26:03.550Z,99.99
2023-05-02T06:27:03.541Z,99.89
2023-05-02T06:28:03.563Z,99.99
2023-05-02T06:29:03.524Z,99.99
2023-05-02T06:30:03.994Z,99.99
2023-05-02T06:31:03.557Z,99.99
2023-05-02T06:32:03.572Z,99.99
2023-05-02T06:33:03.550Z,99.99
2023-05-02T06:34:03.440Z,99.95
2023-05-02T06:35:03.428Z,99.95
2023-05-02T06:36:03.405Z,99.95
2023-05-02T06:37:03.398Z,99.95
2023-05-02T06:38:03.401Z,99.95
2023-05-02T06:39:03.371Z,99.54
2023-05-02T06:40:03.714Z,99.22
2023-05-02T06:41:06.014Z,99.33
2023-05-02T06:42:05.815Z,99.43
2023-05-02T06:43:03.356Z,99.38
2023-05-02T06:44:03.307Z,99.18
2023-05-02T06:45:03.295Z,98.97
2023-05-02T06:46:03.291Z,98.97
2023-05-02T06:47:03.286Z,98.83
2023-05-02T06:48:03.302Z,98.72
2023-05-02T06:49:03.266Z,98.42
2023-05-02T06:50:03.383Z,98.42
2023-05-02T06:51:03.240Z,98.27
2023-05-02T06:52:03.209Z,97.65
2023-05-02T06:53:03.194Z,97.34
2023-05-02T06:54:03.180Z,97.14
2023-05-02T06:55:03.168Z,97.04
2023-05-02T06:56:03.221Z,96.69
2023-05-02T06:57:03.133Z,96.48
2023-05-02T06:58:03.135Z,96.44
2023-05-02T06:59:03.118Z,96.29
2023-05-02T07:00:03.358Z,95.98
2023-05-02T07:01:03.140Z,96.25
2023-05-02T07:02:05.189Z,96.11
2023-05-02T07:03:03.131Z,93.62
2023-05-02T07:04:03.098Z,90.75
2023-05-02T07:05:03.072Z,89.43
2023-05-02T07:06:03.079Z,89.12
2023-05-02T07:07:03.012Z,88.98
2023-05-02T07:08:03.006Z,88.47
2023-05-02T07:09:02.996Z,88.32
2023-05-02T07:10:03.191Z,88.20
2023-05-02T07:11:02.953Z,84.92
2023-05-02T07:12:05.327Z,82.92
2023-05-02T07:13:02.922Z,80.32
2023-05-02T07:14:02.913Z,78.66
2023-05-02T07:15:02.902Z,76.23
2023-05-02T07:16:02.954Z,74.47
2023-05-02T07:17:03.023Z,73.80
2023-05-02T07:18:02.914Z,75.04
2023-05-02T07:19:02.856Z,75.18
2023-05-02T07:20:03.041Z,76.17
2023-05-02T07:21:02.858Z,77.42
2023-05-02T07:22:02.822Z,77.80
2023-05-02T07:23:02.802Z,79.90
2023-05-02T07:24:02.800Z,81.46
2023-05-02T07:25:02.775Z,82.52
2023-05-02T07:26:05.594Z,82.80
2023-05-02T07:27:02.749Z,84.27
2023-05-02T07:28:02.740Z,85.33
2023-05-02T07:29:02.743Z,85.98
2023-05-02T07:30:03.101Z,86.33
2023-05-02T07:31:02.724Z,86.94
2023-05-02T07:32:02.781Z,89.12
2023-05-02T07:33:02.688Z,89.53
2023-05-02T07:34:02.656Z,89.23
2023-05-02T07:35:02.654Z,89.63
2023-05-02T07:36:02.633Z,90.45
2023-05-02T07:37:02.753Z,90.55
2023-05-02T07:38:02.609Z,90.55
2023-05-02T07:39:02.592Z,90.75
2023-05-02T07:40:02.900Z,90.96
2023-05-02T07:41:02.572Z,90.75
2023-05-02T07:42:02.554Z,90.41
2023-05-02T07:43:02.547Z,90.41
2023-05-02T07:44:02.537Z,90.71
2023-05-02T07:45:02.529Z,90.57
2023-05-02T07:46:02.591Z,89.86
2023-05-02T07:47:02.482Z,89.65
2023-05-02T07:48:02.556Z,89.28
2023-05-02T07:49:02.450Z,88.63
2023-05-02T07:50:02.728Z,89.04
2023-05-02T07:51:02.438Z,89.04
2023-05-02T07:52:02.420Z,89.45
2023-05-02T07:53:02.449Z,89.14
2023-05-02T07:54:02.399Z,88.84
2023-05-02T07:55:02.391Z,88.63
2023-05-02T07:56:02.380Z,88.53
2023-05-02T07:57:02.516Z,86.59
2023-05-02T07:58:02.339Z,86.80
2023-05-02T07:59:03.656Z,86.18
2023-05-02T08:00:02.872Z,87.06
2023-05-02T08:01:02.309Z,85.94
2023-05-02T08:02:02.287Z,85.11
2023-05-02T08:03:02.390Z,84.70
2023-05-02T08:04:02.520Z,82.32
2023-05-02T08:05:02.367Z,80.80
2023-05-02T08:06:02.330Z,76.50
2023-05-02T08:07:02.228Z,74.64
2023-05-02T08:08:02.217Z,74.68
2023-05-02T08:09:02.239Z,75.32
2023-05-02T08:10:02.526Z,75.42
2023-05-02T08:11:02.169Z,74.00
2023-05-02T08:12:02.176Z,73.49
2023-05-02T08:13:02.158Z,73.93
2023-05-02T08:14:02.127Z,73.46
2023-05-02T08:15:02.111Z,73.76
2023-05-02T08:16:02.179Z,74.54
2023-05-02T08:17:02.104Z,74.60
2023-05-02T08:18:02.161Z,72.78
2023-05-02T08:19:02.062Z,72.01
2023-05-02T08:20:02.341Z,72.61
2023-05-02T08:21:02.038Z,72.72
2023-05-02T08:22:02.035Z,71.26
2023-05-02T08:23:02.029Z,71.33
2023-05-02T08:24:02.020Z,71.13
2023-05-02T08:25:02.038Z,72.72
2023-05-02T08:26:01.979Z,74.20
2023-05-02T08:27:01.967Z,72.38
2023-05-02T08:28:01.946Z,72.81
2023-05-02T08:29:01.957Z,74.37
2023-05-02T08:30:02.012Z,74.40
2023-05-02T08:31:01.933Z,72.65
2023-05-02T08:32:01.954Z,71.57
2023-05-02T08:33:01.909Z,73.75
2023-05-02T08:34:01.888Z,70.86
2023-05-02T08:35:01.872Z,70.18
2023-05-02T08:36:01.850Z,70.96
2023-05-02T08:37:01.830Z,70.86
2023-05-02T08:38:01.823Z,71.91
2023-05-02T08:39:01.814Z,73.29
2023-05-02T08:40:02.115Z,75.76
2023-05-02T08:41:01.823Z,76.71
2023-05-02T08:42:01.764Z,77.22
2023-05-02T08:43:01.764Z,76.75
2023-05-02T08:44:01.745Z,76.58
2023-05-02T08:45:01.746Z,77.90
2023-05-02T08:46:01.741Z,77.53
2023-05-02T08:47:01.728Z,77.53
2023-05-02T08:48:01.726Z,77.73
2023-05-02T08:49:01.678Z,77.16
2023-05-02T08:50:02.258Z,78.17
2023-05-02T08:51:01.645Z,77.56
2023-05-02T08:52:01.640Z,78.99
2023-05-02T08:53:01.633Z,76.25
2023-05-02T08:54:01.692Z,79.29
2023-05-02T08:55:02.099Z,80.58
2023-05-02T08:56:01.592Z,78.48
2023-05-02T08:57:01.702Z,79.50
2023-05-02T08:58:01.564Z,79.70
2023-05-02T08:59:01.546Z,77.56
2023-05-02T09:00:01.554Z,76.95
2023-05-02T09:01:01.540Z,76.75
2023-05-02T09:02:01.506Z,78.78
2023-05-02T09:03:01.536Z,79.09
2023-05-02T09:04:01.537Z,78.48
2023-05-02T09:05:01.668Z,79.90
2023-05-02T09:06:01.493Z,78.62
2023-05-02T09:07:01.447Z,78.72
2023-05-02T09:08:01.430Z,79.74
2023-05-02T09:09:01.420Z,79.98
2023-05-02T09:10:01.420Z,79.88
2023-05-02T09:11:01.389Z,80.22
2023-05-02T09:12:01.374Z,80.90
2023-05-02T09:13:01.406Z,80.11
2023-05-02T09:14:01.512Z,80.32
2023-05-02T09:15:01.609Z,80.83
2023-05-02T09:16:01.334Z,79.71
2023-05-02T09:17:01.350Z,80.38
2023-05-02T09:18:01.351Z,81.30
2023-05-02T09:19:01.282Z,79.98
2023-05-02T09:20:01.266Z,79.98
2023-05-02T09:21:01.254Z,80.73
2023-05-02T09:22:01.244Z,79.91
2023-05-02T09:23:01.246Z,80.83
2023-05-02T09:24:01.221Z,80.52
2023-05-02T09:25:01.485Z,80.83
2023-05-02T09:26:01.192Z,80.73
2023-05-02T09:27:01.204Z,80.02
2023-05-02T09:28:01.171Z,81.44
2023-05-02T09:29:01.187Z,79.24
2023-05-02T09:30:01.136Z,79.95
2023-05-02T09:31:01.138Z,80.97
2023-05-02T09:32:01.144Z,82.23
2023-05-02T09:33:01.204Z,81.72
2023-05-02T09:34:01.088Z,82.03
2023-05-02T09:35:01.294Z,81.72
2023-05-02T09:36:01.066Z,81.93
2023-05-02T09:37:01.046Z,82.07
2023-05-02T09:38:01.056Z,82.98
2023-05-02T09:39:01.023Z,83.90
2023-05-02T09:40:01.023Z,83.59
2023-05-02T09:41:01.020Z,83.09
2023-05-02T09:42:00.983Z,82.78
2023-05-02T09:43:00.966Z,84.11
2023-05-02T09:44:00.962Z,84.41
2023-05-02T09:45:01.311Z,84.61
2023-05-02T09:46:00.961Z,82.47
2023-05-02T09:47:00.922Z,83.43
2023-05-02T09:48:00.949Z,83.12
2023-05-02T09:49:00.886Z,81.90
2023-05-02T09:50:00.886Z,82.41
2023-05-02T09:51:00.861Z,82.82
2023-05-02T09:52:00.848Z,81.70
2023-05-02T09:53:00.834Z,82.10
2023-05-02T09:54:00.835Z,82.41
2023-05-02T09:55:01.160Z,82.10
2023-05-02T09:56:00.803Z,82.92
2023-05-02T09:57:00.784Z,82.98
2023-05-02T09:58:00.771Z,83.39
2023-05-02T09:59:00.760Z,83.59
2023-05-02T10:00:00.908Z,82.43
2023-05-02T10:01:00.786Z,83.86
2023-05-02T10:02:00.803Z,82.84
2023-05-02T10:03:00.743Z,81.21
2023-05-02T10:04:00.717Z,81.11
2023-05-02T10:05:00.895Z,79.58
2023-05-02T10:06:00.751Z,78.46
2023-05-02T10:07:00.670Z,78.26
2023-05-02T10:08:00.664Z,78.26
2023-05-02T10:09:00.640Z,78.97
2023-05-02T10:10:00.620Z,79.79
2023-05-02T10:11:00.600Z,79.27
2023-05-02T10:12:00.595Z,77.55
2023-05-02T10:13:00.581Z,77.34
2023-05-02T10:14:00.566Z,77.64
2023-05-02T10:15:01.181Z,77.34
2023-05-02T10:16:00.615Z,78.09
2023-05-02T10:17:00.548Z,78.46
2023-05-02T10:18:00.572Z,78.56
2023-05-02T10:19:00.495Z,78.26
2023-05-02T10:20:00.502Z,78.66
2023-05-02T10:21:00.480Z,81.11
2023-05-02T10:22:00.467Z,78.87
2023-05-02T10:23:00.458Z,80.29
2023-05-02T10:24:00.446Z,76.62
2023-05-02T10:25:00.687Z,78.05
2023-05-02T10:26:00.468Z,77.24
2023-05-02T10:27:00.392Z,76.73
2023-05-02T10:28:00.376Z,77.03
2023-05-02T10:29:00.380Z,76.39
2023-05-02T10:30:00.364Z,77.40
2023-05-02T10:31:00.384Z,78.42
2023-05-02T10:32:00.434Z,78.59
2023-05-02T10:33:00.441Z,77.57
2023-05-02T10:34:00.327Z,76.76
2023-05-02T10:35:00.578Z,76.76
2023-05-02T10:36:00.272Z,76.62
2023-05-02T10:37:00.270Z,75.91
2023-05-02T10:38:00.257Z,75.60
2023-05-02T10:39:00.244Z,77.50
2023-05-02T10:40:00.231Z,79.13
2023-05-02T10:41:00.230Z,76.18
2023-05-02T10:42:00.212Z,75.37
2023-05-02T10:43:00.191Z,75.33
2023-05-02T10:44:00.176Z,73.50
2023-05-02T10:45:00.601Z,71.47
2023-05-02T10:46:00.149Z,75.53
2023-05-02T10:47:00.197Z,73.19
2023-05-02T10:48:00.188Z,71.67
2023-05-02T10:49:00.131Z,70.45
2023-05-02T10:50:00.136Z,73.19
2023-05-02T10:51:00.113Z,73.60
2023-05-02T10:52:00.083Z,73.80
2023-05-02T10:53:00.066Z,73.70
2023-05-02T10:54:00.061Z,72.65
2023-05-02T10:55:00.284Z,72.45
2023-05-02T10:56:00.038Z,74.95
2023-05-02T10:57:00.008Z,71.91
2023-05-02T10:58:00.032Z,71.50
2023-05-02T10:58:59.973Z,69.17
2023-05-02T10:59:59.986Z,70.65
2023-05-02T11:01:00.106Z,69.95
2023-05-02T11:01:59.995Z,68.93
2023-05-02T11:03:00.099Z,69.81
2023-05-02T11:03:59.914Z,72.21
2023-05-02T11:05:00.244Z,69.47
2023-05-02T11:05:59.890Z,69.34
2023-05-02T11:06:59.871Z,69.13
2023-05-02T11:07:59.854Z,68.63
2023-05-02T11:08:59.855Z,66.37
2023-05-02T11:09:59.836Z,66.37
2023-05-02T11:10:59.818Z,67.99
2023-05-02T11:11:59.799Z,66.67
2023-05-02T11:12:59.800Z,66.06
2023-05-02T11:13:59.780Z,64.75
2023-05-02T11:15:00.006Z,63.83
2023-05-02T11:15:59.763Z,64.14
2023-05-02T11:16:59.817Z,65.36
2023-05-02T11:17:59.775Z,66.77
2023-05-02T11:18:59.715Z,65.02
2023-05-02T11:19:59.707Z,66.84
2023-05-02T11:20:59.729Z,64.51
2023-05-02T11:21:59.686Z,68.33
2023-05-02T11:22:59.670Z,68.10
2023-05-02T11:23:59.647Z,67.29
2023-05-02T11:25:00.053Z,64.86
2023-05-02T11:25:59.630Z,64.35
2023-05-02T11:26:59.624Z,62.84
2023-05-02T11:27:59.606Z,61.52
2023-05-02T11:28:59.585Z,62.05
2023-05-02T11:29:59.584Z,64.25
2023-05-02T11:30:59.576Z,63.47
2023-05-02T11:31:59.659Z,60.66
2023-05-02T11:32:59.588Z,60.86
2023-05-02T11:33:59.535Z,60.97
2023-05-02T11:34:59.775Z,60.86
2023-05-02T11:35:59.502Z,62.79
2023-05-02T11:36:59.511Z,64.41
2023-05-02T11:37:59.473Z,63.37
2023-05-02T11:38:59.497Z,61.24
2023-05-02T11:39:59.451Z,61.14
2023-05-02T11:40:59.439Z,60.74
2023-05-02T11:41:59.426Z,60.13
2023-05-02T11:42:59.425Z,62.46
2023-05-02T11:43:59.388Z,65.50
2023-05-02T11:44:59.592Z,65.39
2023-05-02T11:45:59.388Z,63.07
2023-05-02T11:46:59.358Z,61.85
2023-05-02T11:47:59.381Z,61.35
2023-05-02T11:48:59.337Z,62.08
2023-05-02T11:49:59.321Z,63.09
2023-05-02T11:50:59.304Z,62.38
2023-05-02T11:51:59.305Z,61.71
2023-05-02T11:52:59.346Z,63.53
2023-05-02T11:53:59.263Z,64.14
2023-05-02T11:54:59.500Z,63.53
2023-05-02T11:55:59.245Z,64.54
2023-05-02T11:56:59.222Z,62.01
2023-05-02T11:57:59.220Z,62.21
2023-05-02T11:58:59.208Z,62.41
2023-05-02T11:59:59.208Z,64.14
2023-05-02T12:00:59.178Z,63.02
2023-05-02T12:01:59.184Z,64.67
2023-05-02T12:02:59.231Z,66.30
2023-05-02T12:03:59.218Z,66.27
2023-05-02T12:04:59.284Z,66.37
2023-05-02T12:05:59.158Z,66.80
2023-05-02T12:06:59.169Z,65.79
2023-05-02T12:07:59.112Z,64.61
2023-05-02T12:08:59.141Z,65.31
2023-05-02T12:09:59.078Z,68.76
2023-05-02T12:10:59.056Z,68.59
2023-05-02T12:11:59.065Z,66.77
2023-05-02T12:12:59.039Z,66.46
2023-05-02T12:13:59.057Z,68.08
2023-05-02T12:14:59.209Z,66.86
2023-05-02T12:15:59.015Z,69.30
2023-05-02T12:16:58.962Z,68.08
2023-05-02T12:17:59.031Z,66.69
2023-05-02T12:18:58.939Z,65.48
2023-05-02T12:19:58.935Z,66.39
2023-05-02T12:20:58.924Z,67.50
2023-05-02T12:21:58.910Z,67.30
2023-05-02T12:22:58.915Z,65.48
2023-05-02T12:23:58.892Z,65.07
2023-05-02T12:24:59.061Z,64.87
2023-05-02T12:25:58.854Z,68.12
2023-05-02T12:26:58.867Z,67.61
2023-05-02T12:27:58.825Z,66.69
2023-05-02T12:28:58.815Z,64.59
2023-05-02T12:29:58.817Z,64.97
2023-05-02T12:30:58.842Z,64.15
2023-05-02T12:31:58.833Z,65.58
2023-05-02T12:32:58.827Z,65.07
2023-05-02T12:33:58.751Z,65.37
2023-05-02T12:34:58.728Z,64.06
2023-05-02T12:35:58.723Z,64.43
2023-05-02T12:36:58.720Z,62.91
2023-05-02T12:37:58.705Z,63.49
2023-05-02T12:38:58.710Z,64.27
2023-05-02T12:39:58.667Z,64.88
2023-05-02T12:40:58.674Z,66.16
2023-05-02T12:41:58.654Z,66.84
2023-05-02T12:42:58.637Z,65.70
2023-05-02T12:43:58.622Z,62.56
2023-05-02T12:44:58.614Z,63.37
2023-05-02T12:45:58.595Z,63.54
2023-05-02T12:46:58.643Z,58.69
2023-05-02T12:47:58.584Z,59.12
2023-05-02T12:48:58.554Z,59.52
2023-05-02T12:49:58.608Z,57.87
2023-05-02T12:50:58.526Z,58.99
2023-05-02T12:51:58.514Z,59.59